sensor_id;sensor_type;location;lat;lon;timestamp;P1;durP1;ratioP1;P2;durP2;ratioP2
4616;SDS011;2321;42.704;23.384;2022-12-07T00:00:20;4.47;;;3.57;;
4616;SDS011;2321;42.704;23.384;2022-12-07T00:02:47;18.13;;;7.80;;
4616;SDS011;2321;42.704;23.384;2022-12-07T00:05:14;8.13;;;5.80;;
4616;SDS011;2321;42.704;23.384;2022-12-07T00:07:41;6.23;;;4.10;;
4616;SDS011;2321;42.704;23.384;2022-12-07T00:10:08;6.40;;;5.80;;
4616;SDS011;2321;42.704;23.384;2022-12-07T00:12:34;8.13;;;3.77;;
4616;SDS011;2321;42.704;23.384;2022-12-07T00:15:03;14.43;;;5.87;;
4616;SDS011;2321;42.704;23.384;2022-12-07T00:17:31;5.60;;;5.10;;
4616;SDS011;2321;42.704;23.384;2022-12-07T00:19:58;17.40;;;5.83;;
4616;SDS011;2321;42.704;23.384;2022-12-07T00:22:25;15.07;;;6.40;;
4616;SDS011;2321;42.704;23.384;2022-12-07T00:24:52;14.37;;;8.23;;
4616;SDS011;2321;42.704;23.384;2022-12-07T00:27:19;5.40;;;4.70;;
4616;SDS011;2321;42.704;23.384;2022-12-07T00:29:46;7.23;;;3.60;;
4616;SDS011;2321;42.704;23.384;2022-12-07T00:32:14;16.53;;;6.03;;
4616;SDS011;2321;42.704;23.384;2022-12-07T00:34:41;7.97;;;5.50;;
4616;SDS011;2321;42.704;23.384;2022-12-07T00:37:08;4.33;;;3.93;;
4616;SDS011;2321;42.704;23.384;2022-12-07T00:39:35;11.63;;;4.40;;
4616;SDS011;2321;42.704;23.384;2022-12-07T00:42:02;6.73;;;6.03;;
4616;SDS011;2321;42.704;23.384;2022-12-07T00:44:29;6.90;;;5.90;;
4616;SDS011;2321;42.704;23.384;2022-12-07T00:46:56;9.17;;;6.90;;
4616;SDS011;2321;42.704;23.384;2022-12-07T00:49:24;9.50;;;4.97;;
4616;SDS011;2321;42.704;23.384;2022-12-07T00:51:51;11.60;;;6.17;;
4616;SDS011;2321;42.704;23.384;2022-12-07T00:54:18;5.37;;;4.67;;
4616;SDS011;2321;42.704;23.384;2022-12-07T00:56:45;6.77;;;6.13;;
4616;SDS011;2321;42.704;23.384;2022-12-07T00:59:13;12.80;;;5.13;;
4616;SDS011;2321;42.704;23.384;2022-12-07T01:01:40;9.13;;;6.47;;
4616;SDS011;2321;42.704;23.384;2022-12-07T01:04:07;6.77;;;6.07;;
4616;SDS011;2321;42.704;23.384;2022-12-07T01:06:36;4.07;;;3.77;;
4616;SDS011;2321;42.704;23.384;2022-12-07T01:09:03;12.73;;;6.90;;
4616;SDS011;2321;42.704;23.384;2022-12-07T01:11:31;9.83;;;6.20;;
4616;SDS011;2321;42.704;23.384;2022-12-07T01:13:59;10.07;;;4.93;;
4616;SDS011;2321;42.704;23.384;2022-12-07T01:16:27;14.77;;;8.30;;
4616;SDS011;2321;42.704;23.384;2022-12-07T01:18:56;8.30;;;4.60;;
4616;SDS011;2321;42.704;23.384;2022-12-07T01:21:25;10.93;;;5.90;;
4616;SDS011;2321;42.704;23.384;2022-12-07T01:23:56;5.10;;;4.10;;
4616;SDS011;2321;42.704;23.384;2022-12-07T01:26:23;10.73;;;7.33;;
4616;SDS011;2321;42.704;23.384;2022-12-07T01:28:51;9.73;;;6.90;;
4616;SDS011;2321;42.704;23.384;2022-12-07T01:31:20;7.87;;;5.80;;
4616;SDS011;2321;42.704;23.384;2022-12-07T01:33:49;20.50;;;8.53;;
4616;SDS011;2321;42.704;23.384;2022-12-07T01:36:18;11.43;;;8.53;;
4616;SDS011;2321;42.704;23.384;2022-12-07T01:38:47;20.07;;;6.00;;
4616;SDS011;2321;42.704;23.384;2022-12-07T01:41:18;18.47;;;8.40;;
4616;SDS011;2321;42.704;23.384;2022-12-07T01:46:37;5.60;;;4.37;;
4616;SDS011;2321;42.704;23.384;2022-12-07T01:49:05;16.63;;;9.77;;
4616;SDS011;2321;42.704;23.384;2022-12-07T01:51:34;9.63;;;5.90;;
4616;SDS011;2321;42.704;23.384;2022-12-07T01:54:06;10.73;;;6.53;;
4616;SDS011;2321;42.704;23.384;2022-12-07T01:56:35;10.27;;;8.10;;
4616;SDS011;2321;42.704;23.384;2022-12-07T01:59:05;6.27;;;5.63;;
4616;SDS011;2321;42.704;23.384;2022-12-07T02:01:31;14.23;;;8.03;;
4616;SDS011;2321;42.704;23.384;2022-12-07T02:03:58;12.47;;;6.00;;
4616;SDS011;2321;42.704;23.384;2022-12-07T02:06:25;11.00;;;5.47;;
4616;SDS011;2321;42.704;23.384;2022-12-07T02:08:53;8.20;;;4.90;;
4616;SDS011;2321;42.704;23.384;2022-12-07T02:11:20;19.00;;;6.83;;
4616;SDS011;2321;42.704;23.384;2022-12-07T02:13:49;11.47;;;6.37;;
4616;SDS011;2321;42.704;23.384;2022-12-07T02:16:21;5.60;;;4.90;;
4616;SDS011;2321;42.704;23.384;2022-12-07T02:18:59;4.43;;;4.20;;
4616;SDS011;2321;42.704;23.384;2022-12-07T02:21:45;8.73;;;5.97;;
4616;SDS011;2321;42.704;23.384;2022-12-07T02:27:19;5.97;;;4.00;;
4616;SDS011;2321;42.704;23.384;2022-12-07T02:30:08;7.27;;;5.40;;
4616;SDS011;2321;42.704;23.384;2022-12-07T02:32:40;3.27;;;3.07;;
4616;SDS011;2321;42.704;23.384;2022-12-07T02:35:11;13.67;;;4.00;;
4616;SDS011;2321;42.704;23.384;2022-12-07T02:37:47;3.93;;;3.63;;
4616;SDS011;2321;42.704;23.384;2022-12-07T02:40:24;23.83;;;6.70;;
4616;SDS011;2321;42.704;23.384;2022-12-07T02:42:57;9.80;;;6.50;;
4616;SDS011;2321;42.704;23.384;2022-12-07T02:45:29;13.90;;;8.67;;
4616;SDS011;2321;42.704;23.384;2022-12-07T02:47:58;9.10;;;6.07;;
4616;SDS011;2321;42.704;23.384;2022-12-07T02:50:27;11.80;;;5.87;;
4616;SDS011;2321;42.704;23.384;2022-12-07T02:52:54;8.60;;;7.10;;
4616;SDS011;2321;42.704;23.384;2022-12-07T02:55:26;9.87;;;6.10;;
4616;SDS011;2321;42.704;23.384;2022-12-07T02:58:05;8.93;;;6.57;;
4616;SDS011;2321;42.704;23.384;2022-12-07T03:00:44;10.87;;;4.30;;
4616;SDS011;2321;42.704;23.384;2022-12-07T03:03:21;11.13;;;6.30;;
4616;SDS011;2321;42.704;23.384;2022-12-07T03:05:52;14.67;;;8.23;;
4616;SDS011;2321;42.704;23.384;2022-12-07T03:08:30;19.27;;;6.77;;
4616;SDS011;2321;42.704;23.384;2022-12-07T03:11:05;8.57;;;6.37;;
4616;SDS011;2321;42.704;23.384;2022-12-07T03:13:36;16.90;;;7.90;;
4616;SDS011;2321;42.704;23.384;2022-12-07T03:16:10;10.60;;;4.77;;
4616;SDS011;2321;42.704;23.384;2022-12-07T03:18:43;15.03;;;5.73;;
4616;SDS011;2321;42.704;23.384;2022-12-07T03:21:14;12.03;;;6.47;;
4616;SDS011;2321;42.704;23.384;2022-12-07T03:23:44;9.73;;;6.77;;
4616;SDS011;2321;42.704;23.384;2022-12-07T03:26:16;6.50;;;5.93;;
4616;SDS011;2321;42.704;23.384;2022-12-07T03:28:47;21.87;;;4.73;;
4616;SDS011;2321;42.704;23.384;2022-12-07T03:31:20;9.10;;;6.57;;
4616;SDS011;2321;42.704;23.384;2022-12-07T03:33:52;8.20;;;5.63;;
4616;SDS011;2321;42.704;23.384;2022-12-07T03:36:26;5.63;;;5.03;;
4616;SDS011;2321;42.704;23.384;2022-12-07T03:39:00;7.23;;;4.50;;
4616;SDS011;2321;42.704;23.384;2022-12-07T03:41:33;8.80;;;6.00;;
4616;SDS011;2321;42.704;23.384;2022-12-07T03:44:04;9.63;;;5.17;;
4616;SDS011;2321;42.704;23.384;2022-12-07T03:46:34;7.87;;;7.07;;
4616;SDS011;2321;42.704;23.384;2022-12-07T03:49:11;6.13;;;5.30;;
4616;SDS011;2321;42.704;23.384;2022-12-07T03:51:45;7.87;;;6.00;;
4616;SDS011;2321;42.704;23.384;2022-12-07T03:54:19;6.93;;;5.60;;
4616;SDS011;2321;42.704;23.384;2022-12-07T03:56:51;5.07;;;4.63;;
4616;SDS011;2321;42.704;23.384;2022-12-07T03:59:19;7.23;;;6.57;;
4616;SDS011;2321;42.704;23.384;2022-12-07T04:01:52;13.53;;;6.77;;
4616;SDS011;2321;42.704;23.384;2022-12-07T04:04:20;6.33;;;5.70;;
4616;SDS011;2321;42.704;23.384;2022-12-07T04:06:48;7.20;;;4.37;;
4616;SDS011;2321;42.704;23.384;2022-12-07T04:09:15;8.97;;;6.50;;
4616;SDS011;2321;42.704;23.384;2022-12-07T04:11:42;9.33;;;6.40;;
4616;SDS011;2321;42.704;23.384;2022-12-07T04:14:09;7.20;;;4.43;;
4616;SDS011;2321;42.704;23.384;2022-12-07T04:16:45;12.10;;;6.30;;
4616;SDS011;2321;42.704;23.384;2022-12-07T04:19:14;6.00;;;5.20;;
4616;SDS011;2321;42.704;23.384;2022-12-07T04:21:41;6.80;;;5.37;;
4616;SDS011;2321;42.704;23.384;2022-12-07T04:24:09;6.53;;;5.13;;
4616;SDS011;2321;42.704;23.384;2022-12-07T04:26:37;6.50;;;4.67;;
4616;SDS011;2321;42.704;23.384;2022-12-07T04:29:04;8.90;;;4.90;;
4616;SDS011;2321;42.704;23.384;2022-12-07T04:31:31;4.93;;;4.63;;
4616;SDS011;2321;42.704;23.384;2022-12-07T04:33:58;2.30;;;2.20;;
4616;SDS011;2321;42.704;23.384;2022-12-07T04:36:26;9.87;;;6.80;;
4616;SDS011;2321;42.704;23.384;2022-12-07T04:38:54;6.40;;;4.93;;
4616;SDS011;2321;42.704;23.384;2022-12-07T04:41:21;4.73;;;4.27;;
4616;SDS011;2321;42.704;23.384;2022-12-07T04:43:52;14.87;;;3.90;;
4616;SDS011;2321;42.704;23.384;2022-12-07T04:46:20;11.90;;;5.50;;
4616;SDS011;2321;42.704;23.384;2022-12-07T04:48:47;13.23;;;6.33;;
4616;SDS011;2321;42.704;23.384;2022-12-07T04:51:14;8.47;;;4.77;;
4616;SDS011;2321;42.704;23.384;2022-12-07T04:53:46;13.63;;;7.33;;
4616;SDS011;2321;42.704;23.384;2022-12-07T04:56:13;6.63;;;4.77;;
4616;SDS011;2321;42.704;23.384;2022-12-07T04:58:40;5.57;;;5.00;;
4616;SDS011;2321;42.704;23.384;2022-12-07T05:01:08;8.90;;;5.03;;
4616;SDS011;2321;42.704;23.384;2022-12-07T05:03:35;10.53;;;5.17;;
4616;SDS011;2321;42.704;23.384;2022-12-07T05:06:03;7.10;;;6.60;;
4616;SDS011;2321;42.704;23.384;2022-12-07T05:08:31;7.37;;;5.47;;
4616;SDS011;2321;42.704;23.384;2022-12-07T05:11:00;52.53;;;7.90;;
4616;SDS011;2321;42.704;23.384;2022-12-07T05:13:27;14.40;;;6.57;;
4616;SDS011;2321;42.704;23.384;2022-12-07T05:15:55;5.37;;;5.00;;
4616;SDS011;2321;42.704;23.384;2022-12-07T05:18:21;5.87;;;5.33;;
4616;SDS011;2321;42.704;23.384;2022-12-07T05:20:48;11.80;;;7.47;;
4616;SDS011;2321;42.704;23.384;2022-12-07T05:23:16;14.47;;;6.50;;
4616;SDS011;2321;42.704;23.384;2022-12-07T05:25:43;5.20;;;4.90;;
4616;SDS011;2321;42.704;23.384;2022-12-07T05:28:13;6.80;;;6.13;;
4616;SDS011;2321;42.704;23.384;2022-12-07T05:30:40;10.40;;;7.53;;
4616;SDS011;2321;42.704;23.384;2022-12-07T05:33:06;8.40;;;5.90;;
4616;SDS011;2321;42.704;23.384;2022-12-07T05:35:33;15.00;;;8.03;;
4616;SDS011;2321;42.704;23.384;2022-12-07T05:38:02;10.47;;;6.70;;
4616;SDS011;2321;42.704;23.384;2022-12-07T05:40:29;40.90;;;15.63;;
4616;SDS011;2321;42.704;23.384;2022-12-07T05:42:56;40.30;;;12.40;;
4616;SDS011;2321;42.704;23.384;2022-12-07T05:45:25;10.53;;;8.30;;
4616;SDS011;2321;42.704;23.384;2022-12-07T05:47:52;23.77;;;10.67;;
4616;SDS011;2321;42.704;23.384;2022-12-07T05:50:18;38.67;;;12.40;;
4616;SDS011;2321;42.704;23.384;2022-12-07T05:52:45;16.57;;;9.40;;
4616;SDS011;2321;42.704;23.384;2022-12-07T05:55:12;20.43;;;15.43;;
4616;SDS011;2321;42.704;23.384;2022-12-07T05:57:39;24.03;;;14.20;;
4616;SDS011;2321;42.704;23.384;2022-12-07T06:00:28;14.30;;;10.47;;
4616;SDS011;2321;42.704;23.384;2022-12-07T06:02:54;33.07;;;15.80;;
4616;SDS011;2321;42.704;23.384;2022-12-07T06:05:21;19.90;;;13.20;;
4616;SDS011;2321;42.704;23.384;2022-12-07T06:07:48;22.83;;;14.00;;
4616;SDS011;2321;42.704;23.384;2022-12-07T06:10:15;16.17;;;10.17;;
4616;SDS011;2321;42.704;23.384;2022-12-07T06:12:42;17.87;;;14.40;;
4616;SDS011;2321;42.704;23.384;2022-12-07T06:15:10;23.77;;;13.23;;
4616;SDS011;2321;42.704;23.384;2022-12-07T06:17:40;18.17;;;10.40;;
4616;SDS011;2321;42.704;23.384;2022-12-07T06:20:07;15.47;;;10.10;;
4616;SDS011;2321;42.704;23.384;2022-12-07T06:22:34;47.60;;;14.30;;
4616;SDS011;2321;42.704;23.384;2022-12-07T06:25:01;38.50;;;15.90;;
4616;SDS011;2321;42.704;23.384;2022-12-07T06:27:29;21.47;;;12.47;;
4616;SDS011;2321;42.704;23.384;2022-12-07T06:29:57;28.03;;;9.37;;
4616;SDS011;2321;42.704;23.384;2022-12-07T06:32:24;29.33;;;12.47;;
4616;SDS011;2321;42.704;23.384;2022-12-07T06:34:53;23.30;;;13.30;;
4616;SDS011;2321;42.704;23.384;2022-12-07T06:37:20;22.90;;;13.07;;
4616;SDS011;2321;42.704;23.384;2022-12-07T06:39:47;13.80;;;11.10;;
4616;SDS011;2321;42.704;23.384;2022-12-07T06:42:13;18.20;;;10.80;;
4616;SDS011;2321;42.704;23.384;2022-12-07T06:44:40;20.23;;;12.40;;
4616;SDS011;2321;42.704;23.384;2022-12-07T06:47:08;30.03;;;11.60;;
4616;SDS011;2321;42.704;23.384;2022-12-07T06:49:36;19.90;;;13.17;;
4616;SDS011;2321;42.704;23.384;2022-12-07T06:52:05;20.57;;;10.10;;
4616;SDS011;2321;42.704;23.384;2022-12-07T06:54:32;14.70;;;11.43;;
4616;SDS011;2321;42.704;23.384;2022-12-07T06:56:59;20.03;;;12.27;;
4616;SDS011;2321;42.704;23.384;2022-12-07T06:59:26;32.83;;;14.93;;
4616;SDS011;2321;42.704;23.384;2022-12-07T07:01:52;35.00;;;17.07;;
4616;SDS011;2321;42.704;23.384;2022-12-07T07:04:19;32.63;;;14.93;;
4616;SDS011;2321;42.704;23.384;2022-12-07T07:06:46;24.87;;;13.07;;
4616;SDS011;2321;42.704;23.384;2022-12-07T07:09:14;16.97;;;12.27;;
4616;SDS011;2321;42.704;23.384;2022-12-07T07:11:41;27.30;;;13.10;;
4616;SDS011;2321;42.704;23.384;2022-12-07T07:14:08;25.77;;;15.83;;
4616;SDS011;2321;42.704;23.384;2022-12-07T07:16:35;22.33;;;13.40;;
4616;SDS011;2321;42.704;23.384;2022-12-07T07:19:02;27.23;;;14.43;;
4616;SDS011;2321;42.704;23.384;2022-12-07T07:21:29;26.33;;;12.90;;
4616;SDS011;2321;42.704;23.384;2022-12-07T07:23:56;14.37;;;9.30;;
4616;SDS011;2321;42.704;23.384;2022-12-07T07:26:24;6.80;;;5.40;;
4616;SDS011;2321;42.704;23.384;2022-12-07T07:28:51;20.23;;;7.50;;
4616;SDS011;2321;42.704;23.384;2022-12-07T07:31:18;8.13;;;6.90;;
4616;SDS011;2321;42.704;23.384;2022-12-07T07:33:45;7.87;;;5.30;;
4616;SDS011;2321;42.704;23.384;2022-12-07T07:36:12;14.43;;;8.40;;
4616;SDS011;2321;42.704;23.384;2022-12-07T07:38:39;6.60;;;4.77;;
4616;SDS011;2321;42.704;23.384;2022-12-07T07:41:06;62.77;;;5.87;;
4616;SDS011;2321;42.704;23.384;2022-12-07T07:43:34;7.90;;;7.10;;
4616;SDS011;2321;42.704;23.384;2022-12-07T07:46:01;12.47;;;6.53;;
4616;SDS011;2321;42.704;23.384;2022-12-07T07:48:28;16.87;;;8.17;;
4616;SDS011;2321;42.704;23.384;2022-12-07T07:50:55;18.43;;;7.63;;
4616;SDS011;2321;42.704;23.384;2022-12-07T07:53:22;5.87;;;5.27;;
4616;SDS011;2321;42.704;23.384;2022-12-07T07:55:52;10.57;;;6.20;;
4616;SDS011;2321;42.704;23.384;2022-12-07T07:58:19;39.90;;;10.40;;
4616;SDS011;2321;42.704;23.384;2022-12-07T08:00:48;13.03;;;9.73;;
4616;SDS011;2321;42.704;23.384;2022-12-07T08:03:15;28.47;;;8.03;;
4616;SDS011;2321;42.704;23.384;2022-12-07T08:05:42;12.37;;;8.47;;
4616;SDS011;2321;42.704;23.384;2022-12-07T08:08:09;20.50;;;9.87;;
4616;SDS011;2321;42.704;23.384;2022-12-07T08:10:36;25.13;;;9.37;;
4616;SDS011;2321;42.704;23.384;2022-12-07T08:13:03;10.93;;;5.90;;
4616;SDS011;2321;42.704;23.384;2022-12-07T08:15:40;7.10;;;4.90;;
4616;SDS011;2321;42.704;23.384;2022-12-07T08:18:09;8.30;;;6.27;;
4616;SDS011;2321;42.704;23.384;2022-12-07T08:20:37;5.67;;;4.83;;
4616;SDS011;2321;42.704;23.384;2022-12-07T08:23:05;38.37;;;7.13;;
4616;SDS011;2321;42.704;23.384;2022-12-07T08:25:33;10.53;;;6.20;;
4616;SDS011;2321;42.704;23.384;2022-12-07T08:28:03;16.10;;;8.77;;
4616;SDS011;2321;42.704;23.384;2022-12-07T08:30:31;11.63;;;7.27;;
4616;SDS011;2321;42.704;23.384;2022-12-07T08:32:58;13.10;;;5.70;;
4616;SDS011;2321;42.704;23.384;2022-12-07T08:35:27;15.80;;;6.43;;
4616;SDS011;2321;42.704;23.384;2022-12-07T08:37:54;27.10;;;10.07;;
4616;SDS011;2321;42.704;23.384;2022-12-07T08:40:22;14.80;;;7.60;;
4616;SDS011;2321;42.704;23.384;2022-12-07T08:42:50;31.07;;;7.50;;
4616;SDS011;2321;42.704;23.384;2022-12-07T08:45:17;7.20;;;5.40;;
4616;SDS011;2321;42.704;23.384;2022-12-07T08:47:46;15.87;;;8.10;;
4616;SDS011;2321;42.704;23.384;2022-12-07T08:50:17;16.60;;;7.63;;
4616;SDS011;2321;42.704;23.384;2022-12-07T08:52:48;20.37;;;11.87;;
4616;SDS011;2321;42.704;23.384;2022-12-07T08:55:17;10.10;;;7.20;;
4616;SDS011;2321;42.704;23.384;2022-12-07T08:57:45;7.97;;;5.63;;
4616;SDS011;2321;42.704;23.384;2022-12-07T09:00:12;19.07;;;6.20;;
4616;SDS011;2321;42.704;23.384;2022-12-07T09:02:42;11.10;;;5.50;;
4616;SDS011;2321;42.704;23.384;2022-12-07T09:05:10;9.17;;;4.97;;
4616;SDS011;2321;42.704;23.384;2022-12-07T09:07:37;14.80;;;7.20;;
4616;SDS011;2321;42.704;23.384;2022-12-07T09:10:07;58.67;;;9.47;;
4616;SDS011;2321;42.704;23.384;2022-12-07T09:12:34;22.23;;;8.13;;
4616;SDS011;2321;42.704;23.384;2022-12-07T09:15:01;11.60;;;9.00;;
4616;SDS011;2321;42.704;23.384;2022-12-07T09:17:31;14.23;;;8.40;;
4616;SDS011;2321;42.704;23.384;2022-12-07T09:19:58;13.07;;;8.37;;
4616;SDS011;2321;42.704;23.384;2022-12-07T09:22:28;7.00;;;5.37;;
4616;SDS011;2321;42.704;23.384;2022-12-07T09:24:55;21.90;;;9.83;;
4616;SDS011;2321;42.704;23.384;2022-12-07T09:27:23;5.00;;;4.33;;
4616;SDS011;2321;42.704;23.384;2022-12-07T09:29:55;17.90;;;8.00;;
4616;SDS011;2321;42.704;23.384;2022-12-07T09:32:22;13.73;;;7.77;;
4616;SDS011;2321;42.704;23.384;2022-12-07T09:34:49;13.10;;;8.37;;
4616;SDS011;2321;42.704;23.384;2022-12-07T09:37:16;12.70;;;9.13;;
4616;SDS011;2321;42.704;23.384;2022-12-07T09:39:49;14.67;;;9.00;;
4616;SDS011;2321;42.704;23.384;2022-12-07T09:42:23;29.33;;;13.40;;
4616;SDS011;2321;42.704;23.384;2022-12-07T09:44:55;20.80;;;10.33;;
4616;SDS011;2321;42.704;23.384;2022-12-07T09:47:24;24.53;;;13.13;;
4616;SDS011;2321;42.704;23.384;2022-12-07T09:49:51;23.80;;;8.40;;
4616;SDS011;2321;42.704;23.384;2022-12-07T09:52:20;8.83;;;7.37;;
4616;SDS011;2321;42.704;23.384;2022-12-07T09:54:52;23.43;;;9.90;;
4616;SDS011;2321;42.704;23.384;2022-12-07T09:57:20;16.30;;;9.60;;
4616;SDS011;2321;42.704;23.384;2022-12-07T09:59:55;14.57;;;9.00;;
4616;SDS011;2321;42.704;23.384;2022-12-07T10:02:35;12.83;;;7.87;;
4616;SDS011;2321;42.704;23.384;2022-12-07T10:05:05;20.50;;;11.53;;
4616;SDS011;2321;42.704;23.384;2022-12-07T10:07:36;14.33;;;9.60;;
4616;SDS011;2321;42.704;23.384;2022-12-07T10:10:04;50.00;;;14.20;;
4616;SDS011;2321;42.704;23.384;2022-12-07T10:12:50;24.30;;;12.67;;
4616;SDS011;2321;42.704;23.384;2022-12-07T10:15:22;18.67;;;13.33;;
4616;SDS011;2321;42.704;23.384;2022-12-07T10:17:51;11.87;;;7.67;;
4616;SDS011;2321;42.704;23.384;2022-12-07T10:20:20;23.53;;;12.43;;
4616;SDS011;2321;42.704;23.384;2022-12-07T10:22:59;42.47;;;18.80;;
4616;SDS011;2321;42.704;23.384;2022-12-07T10:25:29;12.47;;;6.37;;
4616;SDS011;2321;42.704;23.384;2022-12-07T10:27:58;27.37;;;13.57;;
4616;SDS011;2321;42.704;23.384;2022-12-07T10:30:29;24.23;;;7.70;;
4616;SDS011;2321;42.704;23.384;2022-12-07T10:32:58;23.37;;;9.37;;
4616;SDS011;2321;42.704;23.384;2022-12-07T10:35:25;13.97;;;8.23;;
4616;SDS011;2321;42.704;23.384;2022-12-07T10:37:54;9.10;;;6.27;;
4616;SDS011;2321;42.704;23.384;2022-12-07T10:40:30;5.90;;;5.50;;
4616;SDS011;2321;42.704;23.384;2022-12-07T10:43:11;31.70;;;9.03;;
4616;SDS011;2321;42.704;23.384;2022-12-07T10:45:54;15.00;;;8.33;;
4616;SDS011;2321;42.704;23.384;2022-12-07T10:48:48;10.53;;;5.53;;
4616;SDS011;2321;42.704;23.384;2022-12-07T10:51:26;10.70;;;6.90;;
4616;SDS011;2321;42.704;23.384;2022-12-07T10:54:06;14.23;;;6.00;;
4616;SDS011;2321;42.704;23.384;2022-12-07T10:56:43;8.43;;;4.90;;
4616;SDS011;2321;42.704;23.384;2022-12-07T10:59:31;5.33;;;4.47;;
4616;SDS011;2321;42.704;23.384;2022-12-07T11:02:23;7.40;;;5.10;;
4616;SDS011;2321;42.704;23.384;2022-12-07T11:05:02;7.00;;;3.97;;
4616;SDS011;2321;42.704;23.384;2022-12-07T11:07:39;4.93;;;4.40;;
4616;SDS011;2321;42.704;23.384;2022-12-07T11:10:15;7.20;;;4.70;;
4616;SDS011;2321;42.704;23.384;2022-12-07T11:12:55;9.60;;;4.90;;
4616;SDS011;2321;42.704;23.384;2022-12-07T11:15:33;9.93;;;5.13;;
4616;SDS011;2321;42.704;23.384;2022-12-07T11:18:11;14.53;;;5.13;;
4616;SDS011;2321;42.704;23.384;2022-12-07T11:20:49;5.50;;;5.07;;
4616;SDS011;2321;42.704;23.384;2022-12-07T11:23:27;5.07;;;4.63;;
4616;SDS011;2321;42.704;23.384;2022-12-07T11:26:07;9.97;;;6.10;;
4616;SDS011;2321;42.704;23.384;2022-12-07T11:28:46;38.60;;;6.93;;
4616;SDS011;2321;42.704;23.384;2022-12-07T11:31:28;9.20;;;5.87;;
4616;SDS011;2321;42.704;23.384;2022-12-07T11:34:05;6.60;;;5.17;;
4616;SDS011;2321;42.704;23.384;2022-12-07T11:36:40;9.73;;;4.87;;
4616;SDS011;2321;42.704;23.384;2022-12-07T11:39:22;11.13;;;5.97;;
4616;SDS011;2321;42.704;23.384;2022-12-07T11:41:54;16.40;;;5.00;;
4616;SDS011;2321;42.704;23.384;2022-12-07T11:44:28;6.00;;;4.90;;
4616;SDS011;2321;42.704;23.384;2022-12-07T11:47:00;12.60;;;5.67;;
4616;SDS011;2321;42.704;23.384;2022-12-07T11:49:37;12.23;;;5.40;;
4616;SDS011;2321;42.704;23.384;2022-12-07T11:52:12;22.93;;;5.83;;
4616;SDS011;2321;42.704;23.384;2022-12-07T11:54:46;9.67;;;5.90;;
4616;SDS011;2321;42.704;23.384;2022-12-07T11:57:20;9.33;;;5.20;;
4616;SDS011;2321;42.704;23.384;2022-12-07T11:59:53;24.17;;;7.80;;
4616;SDS011;2321;42.704;23.384;2022-12-07T12:02:26;13.67;;;6.03;;
4616;SDS011;2321;42.704;23.384;2022-12-07T12:05:02;16.53;;;7.80;;
4616;SDS011;2321;42.704;23.384;2022-12-07T12:07:39;16.53;;;6.83;;
4616;SDS011;2321;42.704;23.384;2022-12-07T12:10:13;12.70;;;6.40;;
4616;SDS011;2321;42.704;23.384;2022-12-07T12:15:47;21.50;;;5.33;;
4616;SDS011;2321;42.704;23.384;2022-12-07T12:18:43;25.13;;;5.27;;
4616;SDS011;2321;42.704;23.384;2022-12-07T12:21:29;6.53;;;5.30;;
4616;SDS011;2321;42.704;23.384;2022-12-07T12:23:58;7.30;;;4.70;;
4616;SDS011;2321;42.704;23.384;2022-12-07T12:26:29;14.87;;;6.77;;
4616;SDS011;2321;42.704;23.384;2022-12-07T12:28:59;14.23;;;5.53;;
4616;SDS011;2321;42.704;23.384;2022-12-07T12:31:34;4.93;;;4.53;;
4616;SDS011;2321;42.704;23.384;2022-12-07T12:34:11;6.90;;;5.43;;
4616;SDS011;2321;42.704;23.384;2022-12-07T12:37:00;17.73;;;6.80;;
4616;SDS011;2321;42.704;23.384;2022-12-07T12:39:27;10.80;;;7.27;;
4616;SDS011;2321;42.704;23.384;2022-12-07T12:41:58;16.90;;;6.57;;
4616;SDS011;2321;42.704;23.384;2022-12-07T12:47:54;21.33;;;7.90;;
4616;SDS011;2321;42.704;23.384;2022-12-07T12:50:24;11.60;;;6.27;;
4616;SDS011;2321;42.704;23.384;2022-12-07T12:53:02;30.37;;;10.57;;
4616;SDS011;2321;42.704;23.384;2022-12-07T12:58:38;13.87;;;8.50;;
4616;SDS011;2321;42.704;23.384;2022-12-07T13:04:21;8.03;;;7.07;;
4616;SDS011;2321;42.704;23.384;2022-12-07T13:06:51;10.43;;;5.97;;
4616;SDS011;2321;42.704;23.384;2022-12-07T13:09:21;25.30;;;5.60;;
4616;SDS011;2321;42.704;23.384;2022-12-07T13:11:55;10.97;;;7.03;;
4616;SDS011;2321;42.704;23.384;2022-12-07T13:14:38;17.70;;;7.93;;
4616;SDS011;2321;42.704;23.384;2022-12-07T13:23:09;32.70;;;8.47;;
4616;SDS011;2321;42.704;23.384;2022-12-07T13:25:41;12.37;;;7.03;;
4616;SDS011;2321;42.704;23.384;2022-12-07T13:28:17;13.53;;;6.30;;
4616;SDS011;2321;42.704;23.384;2022-12-07T13:30:47;22.03;;;10.63;;
4616;SDS011;2321;42.704;23.384;2022-12-07T13:33:27;21.50;;;9.33;;
4616;SDS011;2321;42.704;23.384;2022-12-07T13:35:55;142.27;;;53.33;;
4616;SDS011;2321;42.704;23.384;2022-12-07T13:38:27;50.97;;;21.37;;
4616;SDS011;2321;42.704;23.384;2022-12-07T13:41:02;41.63;;;16.90;;
4616;SDS011;2321;42.704;23.384;2022-12-07T13:43:30;16.87;;;8.80;;
4616;SDS011;2321;42.704;23.384;2022-12-07T13:45:57;11.27;;;8.03;;
4616;SDS011;2321;42.704;23.384;2022-12-07T13:48:29;17.73;;;8.90;;
4616;SDS011;2321;42.704;23.384;2022-12-07T13:50:59;15.20;;;8.67;;
4616;SDS011;2321;42.704;23.384;2022-12-07T13:53:27;32.57;;;10.07;;
4616;SDS011;2321;42.704;23.384;2022-12-07T13:55:55;27.23;;;13.37;;
4616;SDS011;2321;42.704;23.384;2022-12-07T13:58:25;26.53;;;13.33;;
4616;SDS011;2321;42.704;23.384;2022-12-07T14:00:56;28.97;;;11.63;;
4616;SDS011;2321;42.704;23.384;2022-12-07T14:03:28;19.03;;;9.80;;
4616;SDS011;2321;42.704;23.384;2022-12-07T14:06:05;29.40;;;10.90;;
4616;SDS011;2321;42.704;23.384;2022-12-07T14:08:38;18.23;;;9.77;;
4616;SDS011;2321;42.704;23.384;2022-12-07T14:11:05;17.90;;;9.37;;
4616;SDS011;2321;42.704;23.384;2022-12-07T14:13:38;18.77;;;8.83;;
4616;SDS011;2321;42.704;23.384;2022-12-07T14:16:17;14.20;;;9.10;;
4616;SDS011;2321;42.704;23.384;2022-12-07T14:18:50;39.47;;;9.00;;
4616;SDS011;2321;42.704;23.384;2022-12-07T14:21:18;26.40;;;8.17;;
4616;SDS011;2321;42.704;23.384;2022-12-07T14:24:02;17.73;;;5.60;;
4616;SDS011;2321;42.704;23.384;2022-12-07T14:26:43;21.10;;;7.47;;
4616;SDS011;2321;42.704;23.384;2022-12-07T14:29:22;20.30;;;10.90;;
4616;SDS011;2321;42.704;23.384;2022-12-07T14:31:56;16.63;;;7.77;;
4616;SDS011;2321;42.704;23.384;2022-12-07T14:34:25;18.20;;;8.60;;
4616;SDS011;2321;42.704;23.384;2022-12-07T14:36:52;14.83;;;9.47;;
4616;SDS011;2321;42.704;23.384;2022-12-07T14:39:19;33.17;;;12.67;;
4616;SDS011;2321;42.704;23.384;2022-12-07T14:41:46;47.33;;;13.77;;
4616;SDS011;2321;42.704;23.384;2022-12-07T14:44:19;65.53;;;17.63;;
4616;SDS011;2321;42.704;23.384;2022-12-07T14:46:49;49.23;;;15.40;;
4616;SDS011;2321;42.704;23.384;2022-12-07T14:49:17;58.90;;;18.17;;
4616;SDS011;2321;42.704;23.384;2022-12-07T14:51:45;53.43;;;21.97;;
4616;SDS011;2321;42.704;23.384;2022-12-07T14:54:15;57.93;;;22.90;;
4616;SDS011;2321;42.704;23.384;2022-12-07T14:56:47;61.77;;;21.40;;
4616;SDS011;2321;42.704;23.384;2022-12-07T15:02:13;61.40;;;24.80;;
4616;SDS011;2321;42.704;23.384;2022-12-07T15:04:42;73.73;;;25.70;;
4616;SDS011;2321;42.704;23.384;2022-12-07T15:07:12;71.03;;;24.47;;
4616;SDS011;2321;42.704;23.384;2022-12-07T15:09:44;103.77;;;29.30;;
4616;SDS011;2321;42.704;23.384;2022-12-07T15:12:10;66.17;;;21.77;;
4616;SDS011;2321;42.704;23.384;2022-12-07T15:14:38;33.73;;;17.80;;
4616;SDS011;2321;42.704;23.384;2022-12-07T15:17:06;49.60;;;16.53;;
4616;SDS011;2321;42.704;23.384;2022-12-07T15:19:36;36.40;;;13.63;;
4616;SDS011;2321;42.704;23.384;2022-12-07T15:22:03;43.63;;;11.70;;
4616;SDS011;2321;42.704;23.384;2022-12-07T15:24:30;36.73;;;16.17;;
4616;SDS011;2321;42.704;23.384;2022-12-07T15:26:57;31.47;;;15.60;;
4616;SDS011;2321;42.704;23.384;2022-12-07T15:29:24;77.73;;;31.30;;
4616;SDS011;2321;42.704;23.384;2022-12-07T15:31:51;101.77;;;43.53;;
4616;SDS011;2321;42.704;23.384;2022-12-07T15:34:20;93.33;;;29.90;;